sensor_id;sensor_type;location;lat;lon;timestamp;pressure;altitude;pressure_sealevel;temperature;humidity
36748;BME280;22716;51.556;5.080;2022-12-07T00:01:57;101659.00;;;5.06;100.00
36748;BME280;22716;51.556;5.080;2022-12-07T00:04:28;101658.19;;;5.09;100.00
36748;BME280;22716;51.556;5.080;2022-12-07T00:06:57;101661.75;;;5.13;100.00
36748;BME280;22716;51.556;5.080;2022-12-07T00:09:28;101663.47;;;5.12;100.00
36748;BME280;22716;51.556;5.080;2022-12-07T00:11:57;101657.38;;;5.12;100.00
36748;BME280;22716;51.556;5.080;2022-12-07T00:14:26;101596.91;;;4.81;100.00
36748;BME280;22716;51.556;5.080;2022-12-07T00:16:56;101649.50;;;5.08;100.00
36748;BME280;22716;51.556;5.080;2022-12-07T00:19:28;101652.19;;;5.12;100.00
36748;BME280;22716;51.556;5.080;2022-12-07T00:21:57;101647.78;;;5.09;100.00
36748;BME280;22716;51.556;5.080;2022-12-07T00:24:36;101657.22;;;5.05;100.00
36748;BME280;22716;51.556;5.080;2022-12-07T00:27:08;101644.97;;;5.00;100.00
36748;BME280;22716;51.556;5.080;2022-12-07T00:29:38;101649.28;;;4.99;100.00
36748;BME280;22716;51.556;5.080;2022-12-07T00:32:10;101642.28;;;4.95;100.00
36748;BME280;22716;51.556;5.080;2022-12-07T00:34:42;101639.59;;;4.92;100.00
36748;BME280;22716;51.556;5.080;2022-12-07T00:37:11;101642.22;;;4.94;100.00
36748;BME280;22716;51.556;5.080;2022-12-07T00:39:41;101641.34;;;4.93;100.00
36748;BME280;22716;51.556;5.080;2022-12-07T00:42:10;101638.72;;;4.92;100.00
36748;BME280;22716;51.556;5.080;2022-12-07T00:44:39;101633.53;;;4.92;100.00
36748;BME280;22716;51.556;5.080;2022-12-07T00:47:08;101627.13;;;4.79;100.00
36748;BME280;22716;51.556;5.080;2022-12-07T00:49:38;101643.91;;;4.92;100.00
36748;BME280;22716;51.556;5.080;2022-12-07T00:52:10;101636.75;;;4.83;100.00
36748;BME280;22716;51.556;5.080;2022-12-07T00:54:39;101630.66;;;4.81;100.00
36748;BME280;22716;51.556;5.080;2022-12-07T00:57:10;101615.75;;;4.74;100.00
36748;BME280;22716;51.556;5.080;2022-12-07T00:59:38;101634.09;;;4.80;100.00
36748;BME280;22716;51.556;5.080;2022-12-07T01:02:07;101641.88;;;4.80;100.00
36748;BME280;22716;51.556;5.080;2022-12-07T01:04:36;101631.41;;;4.77;100.00
36748;BME280;22716;51.556;5.080;2022-12-07T01:07:06;101612.19;;;4.71;100.00
36748;BME280;22716;51.556;5.080;2022-12-07T01:09:38;101633.38;;;4.86;100.00
36748;BME280;22716;51.556;5.080;2022-12-07T01:12:07;101628.16;;;4.84;100.00
36748;BME280;22716;51.556;5.080;2022-12-07T01:14:36;101626.47;;;4.86;100.00
36748;BME280;22716;51.556;5.080;2022-12-07T01:17:05;101633.38;;;4.86;100.00
36748;BME280;22716;51.556;5.080;2022-12-07T01:19:36;101631.56;;;4.83;100.00
36748;BME280;22716;51.556;5.080;2022-12-07T01:22:05;101632.31;;;4.79;100.00
36748;BME280;22716;51.556;5.080;2022-12-07T01:24:37;101636.59;;;4.77;100.00
36748;BME280;22716;51.556;5.080;2022-12-07T01:27:05;101646.00;;;4.72;100.00
36748;BME280;22716;51.556;5.080;2022-12-07T01:29:35;101650.16;;;4.66;100.00
36748;BME280;22716;51.556;5.080;2022-12-07T01:32:05;101641.47;;;4.65;100.00
36748;BME280;22716;51.556;5.080;2022-12-07T01:34:34;101633.88;;;4.73;100.00
36748;BME280;22716;51.556;5.080;2022-12-07T01:37:03;101632.38;;;4.81;100.00
36748;BME280;22716;51.556;5.080;2022-12-07T01:39:32;101625.41;;;4.80;100.00
36748;BME280;22716;51.556;5.080;2022-12-07T01:42:04;101631.66;;;4.88;100.00
36748;BME280;22716;51.556;5.080;2022-12-07T01:47:27;101637.88;;;4.93;100.00
36748;BME280;22716;51.556;5.080;2022-12-07T01:49:56;101638.66;;;4.90;100.00
36748;BME280;22716;51.556;5.080;2022-12-07T01:52:30;101635.97;;;4.87;100.00
36748;BME280;22716;51.556;5.080;2022-12-07T01:55:07;101617.72;;;4.83;100.00
36748;BME280;22716;51.556;5.080;2022-12-07T01:57:45;101631.88;;;4.95;100.00
36748;BME280;22716;51.556;5.080;2022-12-07T02:00:19;101621.50;;;4.95;100.00
36748;BME280;22716;51.556;5.080;2022-12-07T02:02:51;101623.34;;;5.01;100.00
36748;BME280;22716;51.556;5.080;2022-12-07T02:05:22;101632.03;;;5.01;100.00
36748;BME280;22716;51.556;5.080;2022-12-07T02:07:55;101617.94;;;4.92;100.00
36748;BME280;22716;51.556;5.080;2022-12-07T02:10:27;101624.91;;;4.94;100.00
36748;BME280;22716;51.556;5.080;2022-12-07T02:13:01;101618.81;;;4.92;100.00
36748;BME280;22716;51.556;5.080;2022-12-07T02:15:39;101610.91;;;4.88;100.00
36748;BME280;22716;51.556;5.080;2022-12-07T02:18:19;101631.81;;;4.94;100.00
36748;BME280;22716;51.556;5.080;2022-12-07T02:20:58;101626.69;;;4.95;100.00
36748;BME280;22716;51.556;5.080;2022-12-07T02:23:56;101620.63;;;4.95;100.00
36748;BME280;22716;51.556;5.080;2022-12-07T02:27:00;101623.13;;;4.92;100.00
36748;BME280;22716;51.556;5.080;2022-12-07T02:29:39;101635.94;;;4.84;100.00
36748;BME280;22716;51.556;5.080;2022-12-07T02:32:16;101633.97;;;4.76;100.00
36748;BME280;22716;51.556;5.080;2022-12-07T02:35:08;101644.25;;;4.73;100.00
36748;BME280;22716;51.556;5.080;2022-12-07T02:37:49;101636.44;;;4.71;100.00
36748;BME280;22716;51.556;5.080;2022-12-07T02:40:25;101643.34;;;4.71;100.00
36748;BME280;22716;51.556;5.080;2022-12-07T02:43:06;101625.41;;;4.78;100.00
36748;BME280;22716;51.556;5.080;2022-12-07T02:45:42;101623.72;;;4.80;100.00
36748;BME280;22716;51.556;5.080;2022-12-07T02:48:16;101622.81;;;4.78;100.00
36748;BME280;22716;51.556;5.080;2022-12-07T02:50:48;101621.22;;;4.85;100.00
36748;BME280;22716;51.556;5.080;2022-12-07T02:53:35;101614.47;;;4.91;100.00
36748;BME280;22716;51.556;5.080;2022-12-07T02:56:10;101611.94;;;4.94;100.00
36748;BME280;22716;51.556;5.080;2022-12-07T02:58:54;101613.78;;;4.98;100.00
36748;BME280;22716;51.556;5.080;2022-12-07T03:01:35;101620.84;;;5.04;100.00
36748;BME280;22716;51.556;5.080;2022-12-07T03:04:18;101625.00;;;4.97;100.00
36748;BME280;22716;51.556;5.080;2022-12-07T03:07:01;101631.00;;;4.95;100.00
36748;BME280;22716;51.556;5.080;2022-12-07T03:09:43;101631.66;;;4.88;100.00
36748;BME280;22716;51.556;5.080;2022-12-07T03:12:18;101628.25;;;4.89;100.00
36748;BME280;22716;51.556;5.080;2022-12-07T03:15:09;101615.22;;;4.87;100.00
36748;BME280;22716;51.556;5.080;2022-12-07T03:17:45;101617.81;;;4.87;100.00
36748;BME280;22716;51.556;5.080;2022-12-07T03:20:20;101621.38;;;4.91;100.00
36748;BME280;22716;51.556;5.080;2022-12-07T03:22:53;101625.59;;;4.87;100.00
36748;BME280;22716;51.556;5.080;2022-12-07T03:25:24;101620.41;;;4.87;100.00
36748;BME280;22716;51.556;5.080;2022-12-07T03:28:00;101621.28;;;4.88;100.00
36748;BME280;22716;51.556;5.080;2022-12-07T03:30:39;101614.31;;;4.85;100.00
36748;BME280;22716;51.556;5.080;2022-12-07T03:33:19;101612.56;;;4.84;100.00
36748;BME280;22716;51.556;5.080;2022-12-07T03:35:54;101590.63;;;4.73;100.00
36748;BME280;22716;51.556;5.080;2022-12-07T03:38:32;101612.50;;;4.81;100.00
36748;BME280;22716;51.556;5.080;2022-12-07T03:41:05;101616.88;;;4.84;100.00
36748;BME280;22716;51.556;5.080;2022-12-07T03:43:37;101614.97;;;4.77;100.00
36748;BME280;22716;51.556;5.080;2022-12-07T03:46:17;101618.28;;;4.71;100.00
36748;BME280;22716;51.556;5.080;2022-12-07T03:48:58;101613.84;;;4.67;100.00
36748;BME280;22716;51.556;5.080;2022-12-07T03:51:36;101612.94;;;4.65;100.00
36748;BME280;22716;51.556;5.080;2022-12-07T03:54:18;101609.44;;;4.63;100.00
36748;BME280;22716;51.556;5.080;2022-12-07T03:56:49;101616.44;;;4.67;100.00
36748;BME280;22716;51.556;5.080;2022-12-07T03:59:24;101604.31;;;4.66;100.00
36748;BME280;22716;51.556;5.080;2022-12-07T04:02:07;101621.78;;;4.73;100.00
36748;BME280;22716;51.556;5.080;2022-12-07T04:04:39;101616.56;;;4.72;100.00
36748;BME280;22716;51.556;5.080;2022-12-07T04:07:09;101616.59;;;4.73;100.00
36748;BME280;22716;51.556;5.080;2022-12-07T04:09:39;101614.13;;;4.78;100.00
36748;BME280;22716;51.556;5.080;2022-12-07T04:12:07;101604.47;;;4.72;100.00
36748;BME280;22716;51.556;5.080;2022-12-07T04:14:36;101619.91;;;4.68;100.00
36748;BME280;22716;51.556;5.080;2022-12-07T04:17:06;101600.91;;;4.69;100.00
36748;BME280;22716;51.556;5.080;2022-12-07T04:19:41;101605.97;;;4.64;100.00
36748;BME280;22716;51.556;5.080;2022-12-07T04:22:11;101613.97;;;4.72;100.00
36748;BME280;22716;51.556;5.080;2022-12-07T04:24:40;101620.81;;;4.70;100.00
36748;BME280;22716;51.556;5.080;2022-12-07T04:27:08;101622.56;;;4.69;100.00
36748;BME280;22716;51.556;5.080;2022-12-07T04:29:38;101619.09;;;4.70;100.00
36748;BME280;22716;51.556;5.080;2022-12-07T04:32:07;101602.53;;;4.64;100.00
36748;BME280;22716;51.556;5.080;2022-12-07T04:34:39;101605.97;;;4.64;100.00
36748;BME280;22716;51.556;5.080;2022-12-07T04:37:14;101609.44;;;4.63;100.00
36748;BME280;22716;51.556;5.080;2022-12-07T04:39:49;101602.47;;;4.62;100.00
36748;BME280;22716;51.556;5.080;2022-12-07T04:42:18;101599.13;;;4.66;100.00
36748;BME280;22716;51.556;5.080;2022-12-07T04:44:47;101605.19;;;4.67;100.00
36748;BME280;22716;51.556;5.080;2022-12-07T04:47:17;101605.88;;;4.61;100.00
36748;BME280;22716;51.556;5.080;2022-12-07T04:49:48;101606.94;;;4.68;100.00
36748;BME280;22716;51.556;5.080;2022-12-07T04:52:17;101596.69;;;4.72;100.00
36748;BME280;22716;51.556;5.080;2022-12-07T04:54:47;101595.91;;;4.76;100.00
36748;BME280;22716;51.556;5.080;2022-12-07T04:57:16;101596.06;;;4.82;100.00
36748;BME280;22716;51.556;5.080;2022-12-07T04:59:46;101586.56;;;4.83;100.00
36748;BME280;22716;51.556;5.080;2022-12-07T05:02:15;101586.63;;;4.86;100.00
36748;BME280;22716;51.556;5.080;2022-12-07T05:04:44;101582.34;;;4.88;100.00
36748;BME280;22716;51.556;5.080;2022-12-07T05:07:16;101576.97;;;4.80;100.00
36748;BME280;22716;51.556;5.080;2022-12-07T05:09:45;101582.25;;;4.85;100.00
36748;BME280;22716;51.556;5.080;2022-12-07T05:12:15;101584.06;;;4.87;100.00
36748;BME280;22716;51.556;5.080;2022-12-07T05:14:44;101569.94;;;4.76;100.00
36748;BME280;22716;51.556;5.080;2022-12-07T05:17:14;101582.16;;;4.80;100.00
36748;BME280;22716;51.556;5.080;2022-12-07T05:19:43;101578.84;;;4.87;100.00
36748;BME280;22716;51.556;5.080;2022-12-07T05:22:11;101590.19;;;4.89;100.00
36748;BME280;22716;51.556;5.080;2022-12-07T05:24:44;101578.81;;;4.84;100.00
36748;BME280;22716;51.556;5.080;2022-12-07T05:27:18;101584.84;;;4.83;100.00
36748;BME280;22716;51.556;5.080;2022-12-07T05:29:49;101580.41;;;4.79;100.00
36748;BME280;22716;51.556;5.080;2022-12-07T05:32:18;101581.19;;;4.75;100.00
36748;BME280;22716;51.556;5.080;2022-12-07T05:34:47;101582.81;;;4.72;100.00
36748;BME280;22716;51.556;5.080;2022-12-07T05:37:15;101578.28;;;4.63;100.00
36748;BME280;22716;51.556;5.080;2022-12-07T05:39:47;101587.81;;;4.64;100.00
36748;BME280;22716;51.556;5.080;2022-12-07T05:42:16;101585.13;;;4.61;100.00
36748;BME280;22716;51.556;5.080;2022-12-07T05:44:49;101588.53;;;4.59;100.00
36748;BME280;22716;51.556;5.080;2022-12-07T05:47:18;101575.44;;;4.54;100.00
36748;BME280;22716;51.556;5.080;2022-12-07T05:49:48;101579.72;;;4.52;100.00
36748;BME280;22716;51.556;5.080;2022-12-07T05:52:16;101563.03;;;4.42;100.00
36748;BME280;22716;51.556;5.080;2022-12-07T05:54:48;101574.38;;;4.46;100.00
36748;BME280;22716;51.556;5.080;2022-12-07T05:57:26;101568.16;;;4.39;100.00
36748;BME280;22716;51.556;5.080;2022-12-07T05:59:56;101565.41;;;4.35;100.00
36748;BME280;22716;51.556;5.080;2022-12-07T06:02:23;101571.53;;;4.37;100.00
36748;BME280;22716;51.556;5.080;2022-12-07T06:04:52;101564.50;;;4.33;100.00
36748;BME280;22716;51.556;5.080;2022-12-07T06:07:21;101571.25;;;4.26;100.00
36748;BME280;22716;51.556;5.080;2022-12-07T06:09:53;101573.66;;;4.19;100.00
36748;BME280;22716;51.556;5.080;2022-12-07T06:12:22;101579.72;;;4.19;100.00
36748;BME280;22716;51.556;5.080;2022-12-07T06:15:07;101593.41;;;4.14;100.00
36748;BME280;22716;51.556;5.080;2022-12-07T06:17:39;101580.22;;;4.06;100.00
36748;BME280;22716;51.556;5.080;2022-12-07T06:20:09;101582.81;;;4.06;100.00
36748;BME280;22716;51.556;5.080;2022-12-07T06:22:39;101579.47;;;4.10;100.00
36748;BME280;22716;51.556;5.080;2022-12-07T06:25:11;101572.41;;;4.05;100.00
36748;BME280;22716;51.556;5.080;2022-12-07T06:27:41;101565.41;;;4.02;100.00
36748;BME280;22716;51.556;5.080;2022-12-07T06:30:11;101579.22;;;4.01;100.00
36748;BME280;22716;51.556;5.080;2022-12-07T06:32:40;101573.75;;;3.92;100.00
36748;BME280;22716;51.556;5.080;2022-12-07T06:35:09;101573.72;;;3.90;100.00
36748;BME280;22716;51.556;5.080;2022-12-07T06:37:38;101582.38;;;3.91;100.00
36748;BME280;22716;51.556;5.080;2022-12-07T06:40:31;101545.41;;;3.67;100.00
36748;BME280;22716;51.556;5.080;2022-12-07T06:43:01;101585.72;;;3.87;100.00
36748;BME280;22716;51.556;5.080;2022-12-07T06:45:30;101569.75;;;3.73;100.00
36748;BME280;22716;51.556;5.080;2022-12-07T06:47:58;101576.97;;;3.83;100.00
36748;BME280;22716;51.556;5.080;2022-12-07T06:50:27;101574.31;;;3.80;100.00
36748;BME280;22716;51.556;5.080;2022-12-07T06:52:56;101571.72;;;3.80;100.00
36748;BME280;22716;51.556;5.080;2022-12-07T06:55:30;101587.28;;;3.82;100.00
36748;BME280;22716;51.556;5.080;2022-12-07T06:57:59;101580.22;;;3.76;100.00
36748;BME280;22716;51.556;5.080;2022-12-07T07:00:29;101581.84;;;3.73;100.00
36748;BME280;22716;51.556;5.080;2022-12-07T07:02:58;101558.03;;;3.56;100.00
36748;BME280;22716;51.556;5.080;2022-12-07T07:05:27;101580.81;;;3.66;100.00
36748;BME280;22716;51.556;5.080;2022-12-07T07:07:56;101585.28;;;3.72;100.00
36748;BME280;22716;51.556;5.080;2022-12-07T07:10:25;101597.88;;;3.60;100.00
36748;BME280;22716;51.556;5.080;2022-12-07T07:12:56;101607.94;;;3.49;100.00
36748;BME280;22716;51.556;5.080;2022-12-07T07:15:27;101601.97;;;3.52;100.00
36748;BME280;22716;51.556;5.080;2022-12-07T07:18:00;101606.34;;;3.54;100.00
36748;BME280;22716;51.556;5.080;2022-12-07T07:20:30;101601.34;;;3.60;100.00
36748;BME280;22716;51.556;5.080;2022-12-07T07:22:59;101599.94;;;3.70;100.00
36748;BME280;22716;51.556;5.080;2022-12-07T07:25:28;101603.63;;;3.79;100.00
36748;BME280;22716;51.556;5.080;2022-12-07T07:28:02;101599.44;;;3.83;100.00
36748;BME280;22716;51.556;5.080;2022-12-07T07:30:32;101597.81;;;3.86;100.00
36748;BME280;22716;51.556;5.080;2022-12-07T07:33:02;101590.78;;;3.82;100.00
36748;BME280;22716;51.556;5.080;2022-12-07T07:35:36;101594.25;;;3.83;100.00
36748;BME280;22716;51.556;5.080;2022-12-07T07:38:05;101593.34;;;3.82;100.00
36748;BME280;22716;51.556;5.080;2022-12-07T07:40:35;101593.34;;;3.81;100.00
36748;BME280;22716;51.556;5.080;2022-12-07T07:43:06;101602.00;;;3.81;100.00
36748;BME280;22716;51.556;5.080;2022-12-07T07:45:35;101596.75;;;3.80;100.00
36748;BME280;22716;51.556;5.080;2022-12-07T07:48:06;101597.47;;;3.76;100.00
36748;BME280;22716;51.556;5.080;2022-12-07T07:50:35;101585.47;;;3.78;100.00
36748;BME280;22716;51.556;5.080;2022-12-07T07:53:04;101593.34;;;3.82;100.00
36748;BME280;22716;51.556;5.080;2022-12-07T07:55:34;101597.56;;;3.79;100.00
36748;BME280;22716;51.556;5.080;2022-12-07T07:58:03;101579.88;;;3.64;100.00
36748;BME280;22716;51.556;5.080;2022-12-07T08:00:34;101608.72;;;3.76;100.00
36748;BME280;22716;51.556;5.080;2022-12-07T08:03:03;101583.16;;;3.59;100.00
36748;BME280;22716;51.556;5.080;2022-12-07T08:05:32;101592.81;;;3.64;100.00
36748;BME280;22716;51.556;5.080;2022-12-07T08:08:02;101599.88;;;3.68;100.00
36748;BME280;22716;51.556;5.080;2022-12-07T08:10:32;101613.09;;;3.77;100.00
36748;BME280;22716;51.556;5.080;2022-12-07T08:13:02;101606.19;;;3.78;100.00
36748;BME280;22716;51.556;5.080;2022-12-07T08:15:45;101610.50;;;3.77;100.00
36748;BME280;22716;51.556;5.080;2022-12-07T08:18:16;101612.19;;;3.75;100.00
36748;BME280;22716;51.556;5.080;2022-12-07T08:20:44;101616.59;;;3.79;100.00
36748;BME280;22716;51.556;5.080;2022-12-07T08:23:13;101615.59;;;3.74;100.00
36748;BME280;22716;51.556;5.080;2022-12-07T08:25:42;101626.06;;;3.77;100.00
36748;BME280;22716;51.556;5.080;2022-12-07T08:28:11;101625.88;;;3.71;100.00
36748;BME280;22716;51.556;5.080;2022-12-07T08:30:43;101632.91;;;3.75;100.00
36748;BME280;22716;51.556;5.080;2022-12-07T08:33:16;101632.13;;;3.78;100.00
36748;BME280;22716;51.556;5.080;2022-12-07T08:35:50;101615.72;;;3.79;100.00
36748;BME280;22716;51.556;5.080;2022-12-07T08:38:18;101629.84;;;3.88;100.00
36748;BME280;22716;51.556;5.080;2022-12-07T08:40:58;101632.78;;;4.01;100.00
36748;BME280;22716;51.556;5.080;2022-12-07T08:43:27;101620.69;;;4.01;100.00
36748;BME280;22716;51.556;5.080;2022-12-07T08:46:08;101622.59;;;4.08;100.00
36748;BME280;22716;51.556;5.080;2022-12-07T08:48:42;101608.63;;;4.02;100.00
36748;BME280;22716;51.556;5.080;2022-12-07T08:51:16;101612.16;;;4.05;100.00
36748;BME280;22716;51.556;5.080;2022-12-07T08:53:45;101613.03;;;4.06;100.00
36748;BME280;22716;51.556;5.080;2022-12-07T08:56:14;101612.22;;;4.07;100.00
36748;BME280;22716;51.556;5.080;2022-12-07T08:58:43;101617.44;;;4.08;100.00
36748;BME280;22716;51.556;5.080;2022-12-07T09:01:15;101604.34;;;4.04;100.00
36748;BME280;22716;51.556;5.080;2022-12-07T09:03:44;101606.91;;;4.02;100.00
36748;BME280;22716;51.556;5.080;2022-12-07T09:06:13;101613.09;;;4.07;100.00
36748;BME280;22716;51.556;5.080;2022-12-07T09:08:54;101600.94;;;4.05;100.00
36748;BME280;22716;51.556;5.080;2022-12-07T09:11:27;101606.19;;;4.08;100.00
36748;BME280;22716;51.556;5.080;2022-12-07T09:13:56;101609.78;;;4.13;100.00
36748;BME280;22716;51.556;5.080;2022-12-07T09:16:28;101602.03;;;4.14;100.00
36748;BME280;22716;51.556;5.080;2022-12-07T09:18:57;101582.59;;;3.99;100.00
36748;BME280;22716;51.556;5.080;2022-12-07T09:21:26;101604.69;;;4.16;100.00
36748;BME280;22716;51.556;5.080;2022-12-07T09:23:56;101608.34;;;4.24;100.00
36748;BME280;22716;51.556;5.080;2022-12-07T09:26:25;101606.69;;;4.26;100.00
36748;BME280;22716;51.556;5.080;2022-12-07T09:28:55;101605.06;;;4.29;100.00
36748;BME280;22716;51.556;5.080;2022-12-07T09:31:23;101593.63;;;4.23;100.00
36748;BME280;22716;51.556;5.080;2022-12-07T09:33:58;101610.50;;;4.38;100.00
36748;BME280;22716;51.556;5.080;2022-12-07T09:36:29;101611.53;;;4.45;100.00
36748;BME280;22716;51.556;5.080;2022-12-07T09:38:57;101607.06;;;4.39;100.00
36748;BME280;22716;51.556;5.080;2022-12-07T09:41:31;101621.13;;;4.47;100.00
36748;BME280;22716;51.556;5.080;2022-12-07T09:44:09;101606.50;;;4.51;100.00
36748;BME280;22716;51.556;5.080;2022-12-07T09:46:41;101611.81;;;4.56;100.00
36748;BME280;22716;51.556;5.080;2022-12-07T09:49:16;101610.09;;;4.56;100.00
36748;BME280;22716;51.556;5.080;2022-12-07T09:51:47;101607.56;;;4.59;100.00
36748;BME280;22716;51.556;5.080;2022-12-07T09:54:17;101615.44;;;4.62;100.00
36748;BME280;22716;51.556;5.080;2022-12-07T09:56:45;101612.94;;;4.65;100.00
36748;BME280;22716;51.556;5.080;2022-12-07T09:59:22;101604.22;;;4.63;100.00
36748;BME280;22716;51.556;5.080;2022-12-07T10:01:52;101608.84;;;4.75;100.00
36748;BME280;22716;51.556;5.080;2022-12-07T10:04:27;101593.13;;;4.69;100.00
36748;BME280;22716;51.556;5.080;2022-12-07T10:06:56;101607.25;;;4.80;100.00
36748;BME280;22716;51.556;5.080;2022-12-07T10:09:25;101595.09;;;4.79;100.00
36748;BME280;22716;51.556;5.080;2022-12-07T10:12:07;101597.00;;;4.84;100.00
36748;BME280;22716;51.556;5.080;2022-12-07T10:14:48;101596.19;;;4.88;100.00
36748;BME280;22716;51.556;5.080;2022-12-07T10:17:27;101587.69;;;4.94;100.00
36748;BME280;22716;51.556;5.080;2022-12-07T10:20:20;101591.31;;;5.00;100.00
36748;BME280;22716;51.556;5.080;2022-12-07T10:22:59;101587.97;;;5.04;100.00
36748;BME280;22716;51.556;5.080;2022-12-07T10:25:31;101585.53;;;5.12;100.00
36748;BME280;22716;51.556;5.080;2022-12-07T10:28:09;101584.72;;;5.15;100.00
36748;BME280;22716;51.556;5.080;2022-12-07T10:30:56;101576.09;;;5.16;100.00
36748;BME280;22716;51.556;5.080;2022-12-07T10:33:36;101579.59;;;5.18;100.00
36748;BME280;22716;51.556;5.080;2022-12-07T10:36:23;101580.69;;;5.27;100.00
36748;BME280;22716;51.556;5.080;2022-12-07T10:38:59;101574.59;;;5.27;100.00
36748;BME280;22716;51.556;5.080;2022-12-07T10:41:29;101565.78;;;5.20;100.00
36748;BME280;22716;51.556;5.080;2022-12-07T10:43:58;101567.66;;;5.26;100.00
36748;BME280;22716;51.556;5.080;2022-12-07T10:46:48;101570.38;;;5.32;100.00
36748;BME280;22716;51.556;5.080;2022-12-07T10:52:49;101562.84;;;5.42;100.00
36748;BME280;22716;51.556;5.080;2022-12-07T10:55:39;101566.56;;;5.55;100.00
36748;BME280;22716;51.556;5.080;2022-12-07T10:58:29;101559.97;;;5.71;100.00
36748;BME280;22716;51.556;5.080;2022-12-07T11:01:12;101553.31;;;5.83;100.00
36748;BME280;22716;51.556;5.080;2022-12-07T11:07:04;101545.03;;;6.02;100.00
36748;BME280;22716;51.556;5.080;2022-12-07T11:09:50;101557.34;;;6.11;100.00
36748;BME280;22716;51.556;5.080;2022-12-07T11:12:28;101536.50;;;6.11;100.00
36748;BME280;22716;51.556;5.080;2022-12-07T11:15:13;101545.25;;;6.13;100.00
36748;BME280;22716;51.556;5.080;2022-12-07T11:17:52;101540.94;;;6.16;100.00
36748;BME280;22716;51.556;5.080;2022-12-07T11:20:41;101538.34;;;6.15;100.00
36748;BME280;22716;51.556;5.080;2022-12-07T11:23:34;101537.44;;;6.13;100.00
36748;BME280;22716;51.556;5.080;2022-12-07T11:26:25;101533.06;;;6.10;100.00
36748;BME280;22716;51.556;5.080;2022-12-07T11:29:16;101527.88;;;6.10;100.00
36748;BME280;22716;51.556;5.080;2022-12-07T11:31:58;101525.31;;;6.15;100.00
36748;BME280;22716;51.556;5.080;2022-12-07T11:34:39;101515.75;;;6.14;100.00
36748;BME280;22716;51.556;5.080;2022-12-07T11:37:16;101521.03;;;6.17;100.00
36748;BME280;22716;51.556;5.080;2022-12-07T11:39:50;101519.31;;;6.17;100.00
36748;BME280;22716;51.556;5.080;2022-12-07T11:42:27;101514.03;;;6.14;100.00
36748;BME280;22716;51.556;5.080;2022-12-07T11:45:02;101514.09;;;6.17;100.00
36748;BME280;22716;51.556;5.080;2022-12-07T11:47:46;101509.84;;;6.22;100.00
36748;BME280;22716;51.556;5.080;2022-12-07T11:50:26;101504.69;;;6.24;100.00
36748;BME280;22716;51.556;5.080;2022-12-07T11:52:58;101513.44;;;6.29;100.00
36748;BME280;22716;51.556;5.080;2022-12-07T11:55:36;101504.13;;;6.42;100.00
36748;BME280;22716;51.556;5.080;2022-12-07T11:58:27;101504.31;;;6.54;100.00
36748;BME280;22716;51.556;5.080;2022-12-07T12:01:14;101503.91;;;6.82;100.00
36748;BME280;22716;51.556;5.080;2022-12-07T12:03:51;101504.28;;;7.06;100.00
36748;BME280;22716;51.556;5.080;2022-12-07T12:06:23;101486.31;;;7.27;100.00
36748;BME280;22716;51.556;5.080;2022-12-07T12:08:59;101491.81;;;7.50;100.00
36748;BME280;22716;51.556;5.080;2022-12-07T12:11:47;101484.16;;;7.62;100.00
36748;BME280;22716;51.556;5.080;2022-12-07T12:14:35;101478.13;;;7.68;100.00
36748;BME280;22716;51.556;5.080;2022-12-07T12:17:18;101484.06;;;7.58;100.00
36748;BME280;22716;51.556;5.080;2022-12-07T12:20:04;101484.00;;;7.52;100.00
36748;BME280;22716;51.556;5.080;2022-12-07T12:22:40;101479.59;;;7.45;100.00
36748;BME280;22716;51.556;5.080;2022-12-07T12:25:20;101469.09;;;7.39;100.00
36748;BME280;22716;51.556;5.080;2022-12-07T12:27:54;101470.00;;;7.42;100.00
36748;BME280;22716;51.556;5.080;2022-12-07T12:30:37;101468.25;;;7.41;100.00
36748;BME280;22716;51.556;5.080;2022-12-07T12:33:16;101454.19;;;7.31;100.00
36748;BME280;22716;51.556;5.080;2022-12-07T12:36:20;101456.00;;;7.37;100.00
36748;BME280;22716;51.556;5.080;2022-12-07T12:38:51;101457.56;;;7.23;100.00
36748;BME280;22716;51.556;5.080;2022-12-07T12:45:04;101454.81;;;7.11;100.00
36748;BME280;22716;51.556;5.080;2022-12-07T12:47:56;101452.13;;;7.03;100.00
36748;BME280;22716;51.556;5.080;2022-12-07T12:50:28;101451.97;;;6.93;100.00
36748;BME280;22716;51.556;5.080;2022-12-07T12:56:17;101449.19;;;6.82;100.00
36748;BME280;22716;51.556;5.080;2022-12-07T12:59:23;101443.91;;;6.76;100.00
36748;BME280;22716;51.556;5.080;2022-12-07T13:01:55;101432.41;;;6.63;100.00
36748;BME280;22716;51.556;5.080;2022-12-07T13:04:53;101425.31;;;6.52;100.00
36748;BME280;22716;51.556;5.080;2022-12-07T13:07:52;101436.69;;;6.58;100.00
36748;BME280;22716;51.556;5.080;2022-12-07T13:10:41;101434.91;;;6.56;100.00
36748;BME280;22716;51.556;5.080;2022-12-07T13:13:33;101422.84;;;6.59;100.00
36748;BME280;22716;51.556;5.080;2022-12-07T13:16:38;101420.19;;;6.58;100.00
36748;BME280;22716;51.556;5.080;2022-12-07T13:25:38;101427.22;;;6.63;100.00
36748;BME280;22716;51.556;5.080;2022-12-07T13:28:18;101426.38;;;6.63;100.00
36748;BME280;22716;51.556;5.080;2022-12-07T13:33:49;101403.69;;;6.56;100.00
36748;BME280;22716;51.556;5.080;2022-12-07T13:36:22;101404.56;;;6.56;100.00
36748;BME280;22716;51.556;5.080;2022-12-07T13:38:56;101401.97;;;6.56;100.00
36748;BME280;22716;51.556;5.080;2022-12-07T13:41:29;101400.16;;;6.52;100.00
36748;BME280;22716;51.556;5.080;2022-12-07T13:44:05;101399.31;;;6.53;100.00
36748;BME280;22716;51.556;5.080;2022-12-07T13:46:42;101410.56;;;6.51;100.00
36748;BME280;22716;51.556;5.080;2022-12-07T13:49:22;101403.44;;;6.41;100.00
36748;BME280;22716;51.556;5.080;2022-12-07T13:51:54;101394.59;;;6.30;100.00
36748;BME280;22716;51.556;5.080;2022-12-07T13:54:25;101399.84;;;6.33;100.00